Time;durP1;ratioP1;P1;durP2;ratioP2;P2;SDS_P1;SDS_P2;PMS_P1;PMS_P2;Temp;Humidity;BMP_temperature;BMP_pressure;BME280_temperature;BME280_humidity;BME280_pressure;Samples;Min_cycle;Max_cycle;Signal;HPM_P1;HPM_P2
2022/05/09 00:02:13;;;;;;;0.50;0.50;;;11.10;94.70;;;;;;5073413;28;20925;-76
2022/05/09 00:04:38;;;;;;;0.60;0.60;;;11.10;99.90;;;;;;5073339;28;20602;-75
2022/05/09 00:07:05;;;;;;;0.50;0.50;;;11.10;99.90;;;;;;5073780;28;20193;-76
2022/05/09 00:09:31;;;;;;;0.50;0.50;;;11.00;99.90;;;;;;5073098;28;20209;-76
2022/05/09 00:11:56;;;;;;;0.50;0.50;;;11.00;99.90;;;;;;5073024;28;20224;-76
2022/05/09 00:14:22;;;;;;;0.50;0.50;;;11.00;99.90;;;;;;5073332;28;20170;-76
2022/05/09 00:16:50;;;;;;;0.50;0.50;;;11.00;99.90;;;;;;5073168;28;20247;-77
2022/05/09 00:19:17;;;;;;;0.60;0.60;;;10.90;99.90;;;;;;5073126;28;20190;-76
2022/05/09 00:21:43;;;;;;;0.50;0.50;;;10.90;99.90;;;;;;5073209;28;20222;-75
2022/05/09 00:24:13;;;;;;;0.60;0.60;;;10.80;99.90;;;;;;5073058;28;20170;-76
2022/05/09 00:26:39;;;;;;;0.50;0.50;;;10.90;99.90;;;;;;5073023;28;20206;-76
2022/05/09 00:29:06;;;;;;;0.63;0.63;;;10.80;99.90;;;;;;5072601;28;20220;-76
2022/05/09 00:31:31;;;;;;;0.50;0.50;;;10.80;99.90;;;;;;5072600;28;20205;-76
2022/05/09 00:33:57;;;;;;;0.60;0.60;;;10.80;99.90;;;;;;5072489;28;20179;-76
2022/05/09 00:36:23;;;;;;;0.53;0.53;;;10.80;99.90;;;;;;5072772;28;20531;-76
2022/05/09 00:38:51;;;;;;;0.50;0.50;;;10.80;99.90;;;;;;5072303;28;20233;-76
2022/05/09 00:44:07;;;;;;;0.60;0.60;;;10.70;99.90;;;;;;5072762;28;20193;-77
2022/05/09 00:46:33;;;;;;;0.60;0.60;;;10.70;99.90;;;;;;5072309;28;20173;-76
2022/05/09 00:49:09;;;;;;;0.50;0.50;;;10.70;99.90;;;;;;5071946;28;20186;-78
2022/05/09 00:51:36;;;;;;;0.50;0.50;;;10.70;99.90;;;;;;5072216;28;20194;-76
2022/05/09 00:54:04;;;;;;;0.50;0.50;;;10.60;99.90;;;;;;5072236;28;20186;-76
2022/05/09 00:56:37;;;;;;;0.60;0.60;;;10.60;99.90;;;;;;5072422;28;20185;-76
2022/05/09 00:59:08;;;;;;;0.60;0.60;;;10.60;99.90;;;;;;5071714;28;20184;-76
2022/05/09 01:01:34;;;;;;;0.60;0.60;;;10.60;99.90;;;;;;5071030;28;20225;-77
2022/05/09 01:04:08;;;;;;;0.50;0.50;;;10.50;99.90;;;;;;5071867;28;20631;-76
2022/05/09 01:06:34;;;;;;;0.50;0.50;;;10.40;99.90;;;;;;5071998;28;20186;-76
2022/05/09 01:08:59;;;;;;;0.60;0.60;;;10.40;99.90;;;;;;5071512;28;20413;-76
2022/05/09 01:11:28;;;;;;;0.57;0.57;;;10.30;99.90;;;;;;5071863;28;20198;-75
2022/05/09 01:14:01;;;;;;;0.50;0.50;;;10.20;99.90;;;;;;5072086;28;20182;-76
2022/05/09 01:16:26;;;;;;;0.60;0.60;;;10.10;99.90;;;;;;5071984;28;20181;-76
2022/05/09 01:18:52;;;;;;;0.60;0.60;;;10.10;99.90;;;;;;5071452;28;20171;-76
2022/05/09 01:21:32;;;;;;;0.63;0.63;;;10.10;99.90;;;;;;5071414;28;20225;-76
2022/05/09 01:23:58;;;;;;;0.60;0.60;;;10.10;99.90;;;;;;5071704;28;20231;-75
2022/05/09 01:26:24;;;;;;;0.60;0.60;;;10.10;99.90;;;;;;5072011;28;20267;-76
2022/05/09 01:28:49;;;;;;;0.50;0.50;;;10.10;99.90;;;;;;5071668;28;20174;-78
2022/05/09 01:31:18;;;;;;;0.50;0.50;;;10.10;99.90;;;;;;5071437;28;20285;-76
2022/05/09 01:33:47;;;;;;;0.63;0.63;;;10.10;99.90;;;;;;5071531;28;20712;-76
2022/05/09 01:36:25;;;;;;;0.60;0.60;;;10.10;99.90;;;;;;5071635;28;20181;-78
2022/05/09 01:38:59;;;;;;;0.60;0.60;;;10.10;99.90;;;;;;5071238;28;20554;-79
2022/05/09 01:41:27;;;;;;;0.57;0.57;;;10.00;99.90;;;;;;5071418;28;20213;-77
2022/05/09 01:43:55;;;;;;;0.60;0.60;;;10.00;99.90;;;;;;5053387;28;20179;-75
2022/05/09 01:46:31;;;;;;;0.60;0.60;;;10.00;99.90;;;;;;5071532;28;20693;-75
2022/05/09 01:51:43;;;;;;;0.50;0.50;;;9.90;99.90;;;;;;5071537;28;20563;-75
2022/05/09 01:54:10;;;;;;;0.60;0.60;;;9.90;99.90;;;;;;5071385;28;20177;-76
2022/05/09 01:56:38;;;;;;;0.50;0.50;;;9.90;99.90;;;;;;5071671;28;20200;-77
2022/05/09 01:59:06;;;;;;;0.60;0.60;;;9.90;99.90;;;;;;5053090;28;20549;-77
2022/05/09 02:01:45;;;;;;;0.50;0.50;;;9.90;99.90;;;;;;5071081;28;20210;-76
2022/05/09 02:04:11;;;;;;;0.60;0.60;;;9.80;99.90;;;;;;5071334;28;20174;-77
2022/05/09 02:06:38;;;;;;;0.60;0.60;;;9.80;99.90;;;;;;5071419;28;20261;-77
2022/05/09 02:09:04;;;;;;;0.60;0.60;;;9.80;99.90;;;;;;5070818;28;20541;-76
2022/05/09 02:11:29;;;;;;;0.60;0.60;;;9.70;99.90;;;;;;5071360;28;20194;-77
2022/05/09 02:13:55;;;;;;;0.50;0.50;;;9.70;99.90;;;;;;5075301;28;20632;-75
2022/05/09 02:16:20;;;;;;;0.50;0.50;;;9.70;99.90;;;;;;5075531;28;20180;-76
2022/05/09 02:18:46;;;;;;;0.57;0.57;;;9.70;99.90;;;;;;5075062;28;20642;-76
2022/05/09 02:21:12;;;;;;;0.50;0.50;;;9.70;99.90;;;;;;5074550;28;20221;-77
2022/05/09 02:23:38;;;;;;;0.60;0.60;;;9.70;99.90;;;;;;5075298;28;20590;-75
2022/05/09 02:26:04;;;;;;;0.57;0.57;;;9.60;99.90;;;;;;5075205;28;20714;-75
2022/05/09 02:28:30;;;;;;;0.50;0.50;;;9.60;99.90;;;;;;5074994;28;20489;-77
2022/05/09 02:30:55;;;;;;;0.60;0.60;;;9.60;99.90;;;;;;5074527;28;20277;-76
2022/05/09 02:33:22;;;;;;;0.60;0.60;;;9.50;99.90;;;;;;5074963;28;20182;-76
2022/05/09 02:35:47;;;;;;;0.50;0.50;;;9.50;99.90;;;;;;5074880;28;20178;-77
2022/05/09 02:38:14;;;;;;;0.60;0.60;;;9.50;99.90;;;;;;5074767;28;20274;-75
2022/05/09 02:40:40;;;;;;;0.50;0.50;;;9.50;99.90;;;;;;5074037;28;20211;-75
2022/05/09 02:43:06;;;;;;;0.60;0.60;;;9.40;99.90;;;;;;5074706;28;20309;-75
2022/05/09 02:45:32;;;;;;;0.60;0.60;;;9.40;99.90;;;;;;5056680;28;20175;-76
2022/05/09 02:47:58;;;;;;;0.60;0.60;;;9.30;99.90;;;;;;5074462;28;20662;-75
2022/05/09 02:50:25;;;;;;;0.60;0.60;;;9.30;99.90;;;;;;5073863;28;20187;-75
2022/05/09 02:52:52;;;;;;;0.60;0.60;;;9.20;99.90;;;;;;5074164;28;20186;-77
2022/05/09 02:55:19;;;;;;;0.60;0.60;;;9.30;99.90;;;;;;5074452;28;20232;-75
2022/05/09 02:57:45;;;;;;;0.60;0.60;;;9.20;99.90;;;;;;5074285;28;20263;-75
2022/05/09 03:00:18;;;;;;;0.60;0.60;;;9.20;99.90;;;;;;5073916;28;20582;-75
2022/05/09 03:04:38;;;;;;;0.60;0.60;;;9.20;99.90;;;;;;5074461;28;20269;-76
2022/05/09 03:05:30;;;;;;;0.57;0.57;;;9.10;99.90;;;;;;5073906;28;20189;-76
2022/05/09 03:07:56;;;;;;;0.60;0.60;;;9.00;99.90;;;;;;5074093;28;20174;-76
2022/05/09 03:10:23;;;;;;;0.70;0.70;;;9.00;99.90;;;;;;5073743;28;20202;-76
2022/05/09 03:12:49;;;;;;;0.50;0.50;;;9.00;99.90;;;;;;5074365;28;20206;-77
2022/05/09 03:15:16;;;;;;;0.50;0.50;;;9.00;99.90;;;;;;5074063;28;20174;-77
2022/05/09 03:17:41;;;;;;;0.53;0.53;;;9.00;99.90;;;;;;5074108;28;20187;-77
2022/05/09 03:20:08;;;;;;;0.60;0.60;;;9.00;99.90;;;;;;5073440;28;20186;-76
2022/05/09 03:22:34;;;;;;;0.60;0.60;;;9.00;99.90;;;;;;5073727;28;20734;-77
2022/05/09 03:24:59;;;;;;;0.60;0.60;;;8.90;99.90;;;;;;5073077;28;20190;-77
2022/05/09 03:27:26;;;;;;;0.50;0.50;;;8.80;99.90;;;;;;5073780;28;20636;-75
2022/05/09 03:29:52;;;;;;;0.50;0.50;;;8.80;99.90;;;;;;5073216;28;20182;-78
2022/05/09 03:32:17;;;;;;;0.60;0.60;;;8.90;99.90;;;;;;5073746;28;20190;-76
2022/05/09 03:34:44;;;;;;;0.57;0.57;;;8.90;99.90;;;;;;5073889;28;20182;-76
2022/05/09 03:37:10;;;;;;;0.60;0.60;;;8.90;99.90;;;;;;5073624;28;20651;-76
2022/05/09 03:39:36;;;;;;;0.60;0.60;;;8.80;99.90;;;;;;5073203;28;20186;-76
2022/05/09 03:42:02;;;;;;;0.60;0.60;;;8.90;99.90;;;;;;5073326;28;20316;-76
2022/05/09 03:44:27;;;;;;;0.60;0.60;;;8.80;99.90;;;;;;5073557;28;20183;-77
2022/05/09 03:46:53;;;;;;;0.50;0.50;;;8.80;99.90;;;;;;5073451;28;20557;-76
2022/05/09 03:49:19;;;;;;;0.60;0.60;;;8.80;99.90;;;;;;5073118;28;20220;-76
2022/05/09 03:51:45;;;;;;;0.60;0.60;;;8.80;99.90;;;;;;5073127;28;20197;-76
2022/05/09 03:54:11;;;;;;;0.50;0.50;;;8.80;99.90;;;;;;5073532;28;20547;-78
2022/05/09 03:56:37;;;;;;;0.50;0.50;;;8.80;99.90;;;;;;5073507;28;20257;-77
2022/05/09 03:59:02;;;;;;;0.57;0.57;;;8.70;99.90;;;;;;5072741;28;20209;-76
2022/05/09 04:01:28;;;;;;;0.60;0.60;;;8.80;99.90;;;;;;5073129;28;20202;-77
2022/05/09 04:03:53;;;;;;;0.60;0.60;;;8.70;99.90;;;;;;5073067;28;20579;-78
2022/05/09 04:06:19;;;;;;;0.80;0.80;;;8.80;99.90;;;;;;5073006;28;20262;-76
2022/05/09 04:08:45;;;;;;;0.67;0.67;;;8.80;99.90;;;;;;5073114;28;20170;-76
2022/05/09 04:11:10;;;;;;;0.60;0.60;;;8.80;99.90;;;;;;5072647;28;20645;-76
2022/05/09 04:13:36;;;;;;;0.60;0.60;;;8.80;99.90;;;;;;5073030;28;20267;-77
2022/05/09 04:18:45;;;;;;;0.60;0.60;;;8.80;99.90;;;;;;5072999;28;20177;-77
2022/05/09 04:21:13;;;;;;;0.50;0.50;;;8.90;99.90;;;;;;5072137;28;20206;-76
2022/05/09 04:23:39;;;;;;;0.57;0.57;;;9.00;99.90;;;;;;5072930;28;20178;-76
2022/05/09 04:26:06;;;;;;;0.60;0.60;;;9.00;99.90;;;;;;5072454;28;20171;-77
2022/05/09 04:28:32;;;;;;;0.50;0.50;;;9.20;99.90;;;;;;5072539;28;20177;-76
2022/05/09 04:30:59;;;;;;;0.60;0.60;;;9.30;99.90;;;;;;5072039;28;20273;-76
2022/05/09 04:33:25;;;;;;;0.63;0.63;;;9.60;99.90;;;;;;5072548;28;20543;-77
2022/05/09 04:35:50;;;;;;;0.70;0.70;;;9.70;99.90;;;;;;5072324;28;20166;-77
2022/05/09 04:38:23;;;;;;;0.50;0.50;;;9.90;97.90;;;;;;5072152;28;20277;-78
2022/05/09 04:40:54;;;;;;;0.60;0.60;;;10.00;27.20;;;;;;5071860;28;20671;-78
2022/05/09 04:43:22;;;;;;;0.60;0.60;;;10.20;1.00;;;;;;5072431;28;20224;-76
2022/05/09 04:45:48;;;;;;;0.50;0.50;;;10.40;1.00;;;;;;5072351;28;20178;-75
2022/05/09 04:48:18;;;;;;;0.60;0.60;;;10.60;1.00;;;;;;5072257;28;20174;-76
2022/05/09 04:50:44;;;;;;;0.50;0.50;;;10.80;1.00;;;;;;5071550;28;20217;-76
2022/05/09 04:53:09;;;;;;;0.63;0.63;;;10.90;1.00;;;;;;5072267;28;20636;-76
2022/05/09 04:55:35;;;;;;;0.50;0.50;;;10.90;1.00;;;;;;5072352;28;20231;-77
2022/05/09 04:58:01;;;;;;;0.53;0.53;;;11.10;1.00;;;;;;5072127;28;20178;-76
2022/05/09 05:00:28;;;;;;;0.50;0.50;;;11.40;1.00;;;;;;5071309;28;20650;-76
2022/05/09 05:02:54;;;;;;;0.50;0.50;;;11.70;1.00;;;;;;5071866;28;20588;-77
2022/05/09 05:05:21;;;;;;;0.50;0.50;;;12.10;1.00;;;;;;5072146;28;20174;-76
2022/05/09 05:07:48;;;;;;;0.50;0.50;;;12.30;99.90;;;;;;5072350;28;20669;-76
2022/05/09 05:10:14;;;;;;;0.50;0.50;;;12.40;1.00;;;;;;5071153;28;20659;-76
2022/05/09 05:12:40;;;;;;;0.40;0.40;;;12.40;1.00;;;;;;5071750;28;20178;-76
2022/05/09 05:15:07;;;;;;;0.50;0.50;;;12.40;1.00;;;;;;5071949;28;20178;-76
2022/05/09 05:17:33;;;;;;;0.50;0.50;;;12.40;1.00;;;;;;5072426;28;20620;-76
2022/05/09 05:20:00;;;;;;;0.40;0.40;;;12.50;1.00;;;;;;5071801;28;20217;-76
2022/05/09 05:22:26;;;;;;;0.50;0.50;;;12.50;1.00;;;;;;5071909;28;20252;-76
2022/05/09 05:24:53;;;;;;;0.40;0.40;;;12.30;99.90;;;;;;5072442;28;20170;-76
2022/05/09 05:27:23;;;;;;;0.50;0.50;;;12.00;1.00;;;;;;5073221;28;20178;-75
2022/05/09 05:29:49;;;;;;;0.40;0.40;;;11.90;1.00;;;;;;5071603;28;20181;-76
2022/05/09 05:32:21;;;;;;;0.50;0.50;;;11.80;1.00;;;;;;5071763;28;20201;-76
2022/05/09 05:34:48;;;;;;;0.50;0.50;;;11.80;1.00;;;;;;5072329;28;20170;-77
2022/05/09 05:37:14;;;;;;;0.50;0.50;;;11.90;1.00;;;;;;5098248;22;20182;-79
2022/05/09 05:39:41;;;;;;;0.50;0.50;;;12.10;1.00;;;;;;5074373;28;20198;-77
2022/05/09 05:42:07;;;;;;;0.40;0.40;;;12.20;1.00;;;;;;5073875;28;20218;-79
2022/05/09 05:44:34;;;;;;;0.57;0.57;;;12.30;1.00;;;;;;5075333;28;20182;-79
2022/05/09 05:47:05;;;;;;;0.40;0.40;;;12.30;1.00;;;;;;5074536;28;20178;-77
2022/05/09 05:49:31;;;;;;;0.43;0.43;;;12.40;1.00;;;;;;5073862;28;20170;-78
2022/05/09 05:52:02;;;;;;;0.50;0.50;;;12.30;1.00;;;;;;5074185;28;20601;-78
2022/05/09 05:54:28;;;;;;;0.40;0.40;;;12.20;1.50;;;;;;5072145;28;20250;-76
2022/05/09 05:56:53;;;;;;;0.40;0.40;;;12.10;19.50;;;;;;5074720;28;20206;-78
2022/05/09 05:59:19;;;;;;;0.50;0.50;;;12.20;58.10;;;;;;5075956;28;20240;-79
2022/05/09 06:01:45;;;;;;;0.43;0.43;;;12.20;80.00;;;;;;5076544;28;20563;-79
2022/05/09 06:04:10;;;;;;;0.50;0.50;;;12.30;86.50;;;;;;5077373;28;20301;-78
2022/05/09 06:06:36;;;;;;;0.60;0.60;;;12.40;96.40;;;;;;5076280;28;20182;-78
2022/05/09 06:09:02;;;;;;;0.40;0.40;;;12.50;55.30;;;;;;5076794;28;20175;-79
2022/05/09 06:11:28;;;;;;;0.43;0.43;;;12.70;37.60;;;;;;5073161;28;20667;-78
2022/05/09 06:13:53;;;;;;;0.50;0.50;;;12.70;61.40;;;;;;5072461;28;20204;-77
2022/05/09 06:16:19;;;;;;;0.40;0.40;;;12.90;98.40;;;;;;5071658;28;20202;-76
2022/05/09 06:18:46;;;;;;;0.50;0.50;;;13.10;62.80;;;;;;5071397;28;20194;-76
2022/05/09 06:21:12;;;;;;;0.47;0.47;;;13.10;44.20;;;;;;5070893;28;20203;-76
2022/05/09 06:23:37;;;;;;;0.43;0.43;;;13.20;47.40;;;;;;5071406;28;20171;-76
2022/05/09 06:26:03;;;;;;;0.40;0.40;;;13.20;7.90;;;;;;5071223;28;20245;-76
2022/05/09 06:28:28;;;;;;;0.30;0.30;;;13.30;69.30;;;;;;5071555;28;20250;-77
2022/05/09 06:30:54;;;;;;;0.40;0.40;;;13.50;53.60;;;;;;5065016;28;20202;-76
2022/05/09 06:33:22;;;;;;;0.50;0.50;;;13.60;1.00;;;;;;5063301;28;20695;-76
2022/05/09 06:35:48;;;;;;;0.40;0.40;;;13.80;14.60;;;;;;5070441;28;20178;-77
2022/05/09 06:38:15;;;;;;;0.40;0.40;;;14.00;1.00;;;;;;5070222;28;20281;-75
2022/05/09 06:40:41;;;;;;;0.50;0.50;;;14.30;1.00;;;;;;5069840;28;20235;-77
2022/05/09 06:43:07;;;;;;;0.40;0.40;;;14.60;1.00;;;;;;5070778;28;20170;-77
2022/05/09 06:45:33;;;;;;;0.30;0.30;;;14.90;99.90;;;;;;5070508;28;20170;-76
2022/05/09 06:47:59;;;;;;;0.40;0.40;;;15.10;1.00;;;;;;5070993;28;20174;-77
2022/05/09 06:50:31;;;;;;;0.40;0.40;;;15.30;1.00;;;;;;5069649;28;20171;-77
2022/05/09 06:52:58;;;;;;;0.40;0.40;;;15.40;1.00;;;;;;5068002;28;20175;-77
2022/05/09 06:55:24;;;;;;;0.40;0.40;;;15.70;1.00;;;;;;5069880;28;20648;-77
2022/05/09 06:57:49;;;;;;;0.30;0.30;;;15.90;1.00;;;;;;5071271;28;20181;-77
2022/05/09 07:00:21;;;;;;;0.40;0.40;;;16.00;99.90;;;;;;5072815;28;20514;-77
2022/05/09 07:02:47;;;;;;;0.30;0.30;;;16.10;1.00;;;;;;5073879;28;20208;-73
2022/05/09 07:05:15;;;;;;;0.50;0.50;;;16.30;99.90;;;;;;5073657;28;20174;-73
2022/05/09 07:07:44;;;;;;;0.30;0.30;;;16.50;99.90;;;;;;5071378;28;20550;-73
2022/05/09 07:10:12;;;;;;;0.37;0.37;;;16.70;1.00;;;;;;5073353;28;20181;-72
2022/05/09 07:12:49;;;;;;;0.30;0.30;;;16.80;1.00;;;;;;5071004;28;20171;-73
2022/05/09 07:15:19;;;;;;;0.40;0.40;;;17.00;1.00;;;;;;5067131;28;20185;-73
2022/05/09 07:17:45;;;;;;;0.40;0.40;;;17.20;1.00;;;;;;5074162;28;20183;-73
2022/05/09 07:20:12;;;;;;;0.30;0.30;;;17.30;99.90;;;;;;5072767;28;20244;-73
2022/05/09 07:22:38;;;;;;;0.40;0.40;;;17.40;99.90;;;;;;5073645;28;20202;-73
2022/05/09 07:25:04;;;;;;;0.30;0.30;;;17.60;1.00;;;;;;5073572;28;20731;-73
2022/05/09 07:27:31;;;;;;;0.30;0.30;;;17.80;99.90;;;;;;5073320;28;20174;-73
2022/05/09 07:29:57;;;;;;;0.47;0.47;;;18.10;99.90;;;;;;5072849;28;20185;-74
2022/05/09 07:32:23;;;;;;;0.40;0.40;;;18.30;57.30;;;;;;5073878;28;20294;-72
2022/05/09 07:34:49;;;;;;;0.30;0.30;;;18.40;16.50;;;;;;5073206;28;20198;-74
2022/05/09 07:37:15;;;;;;;0.40;0.40;;;18.90;1.00;;;;;;5073391;28;20473;-75
2022/05/09 07:39:41;;;;;;;0.30;0.30;;;19.30;1.00;;;;;;5073056;28;20182;-74
2022/05/09 07:42:07;;;;;;;0.30;0.30;;;20.20;1.00;;;;;;5073227;28;20296;-73
2022/05/09 07:44:32;;;;;;;0.33;0.33;;;20.60;1.00;;;;;;5073612;28;20646;-74
2022/05/09 07:46:58;;;;;;;0.30;0.30;;;20.90;1.00;;;;;;5073447;28;20611;-74
2022/05/09 07:49:23;;;;;;;0.40;0.40;;;21.20;1.00;;;;;;5063999;28;20182;-74
2022/05/09 07:51:49;;;;;;;0.30;0.30;;;21.50;1.00;;;;;;5073810;28;20202;-75
2022/05/09 07:54:14;;;;;;;0.40;0.40;;;22.20;1.00;;;;;;5073304;28;20198;-74
2022/05/09 07:56:43;;;;;;;0.30;0.30;;;22.30;1.00;;;;;;5073076;28;20509;-75
2022/05/09 07:59:08;;;;;;;0.40;0.40;;;22.30;1.00;;;;;;5072609;28;20167;-74
2022/05/09 08:01:34;;;;;;;0.33;0.33;;;21.70;1.00;;;;;;5073437;28;20302;-74
2022/05/09 08:04:00;;;;;;;0.33;0.33;;;21.40;1.00;;;;;;5073407;28;20174;-74
2022/05/09 08:06:26;;;;;;;0.40;0.40;;;22.00;1.00;;;;;;5073297;28;20181;-75
2022/05/09 08:08:52;;;;;;;0.30;0.30;;;22.30;1.00;;;;;;5072331;28;20167;-75
2022/05/09 08:11:18;;;;;;;0.30;0.30;;;23.30;1.00;;;;;;5055580;28;20676;-75
2022/05/09 08:13:44;;;;;;;0.33;0.33;;;23.70;1.00;;;;;;5053493;28;20171;-75
2022/05/09 08:16:11;;;;;;;0.30;0.30;;;23.50;1.00;;;;;;5053552;28;20183;-74
2022/05/09 08:18:36;;;;;;;0.30;0.30;;;24.30;1.00;;;;;;5053266;28;20183;-74
2022/05/09 08:21:04;;;;;;;0.20;0.20;;;24.50;1.00;;;;;;5061858;28;20225;-73
2022/05/09 08:23:31;;;;;;;0.30;0.30;;;24.40;1.00;;;;;;5072823;28;20209;-73
2022/05/09 08:25:58;;;;;;;0.30;0.30;;;24.30;1.00;;;;;;5066560;28;20187;-74
2022/05/09 08:28:24;;;;;;;0.30;0.30;;;24.10;1.00;;;;;;5066885;28;20174;-74
2022/05/09 08:30:52;;;;;;;0.40;0.40;;;24.20;1.00;;;;;;5071957;28;20255;-72
2022/05/09 08:33:21;;;;;;;0.30;0.30;;;23.80;1.00;;;;;;5072525;28;20190;-73
2022/05/09 08:35:55;;;;;;;0.37;0.37;;;23.80;1.00;;;;;;5072612;28;20178;-73
2022/05/09 08:38:21;;;;;;;0.30;0.30;;;24.10;1.00;;;;;;5072401;28;20320;-73
2022/05/09 08:41:11;;;;;;;0.40;0.40;;;24.40;1.00;;;;;;5071718;28;20197;-73
2022/05/09 08:43:52;;;;;;;0.30;0.30;;;24.20;1.00;;;;;;5072257;28;20724;-74
2022/05/09 08:46:22;;;;;;;0.30;0.30;;;23.90;1.00;;;;;;5070898;28;20257;-73
2022/05/09 08:48:50;;;;;;;0.30;0.30;;;23.60;1.00;;;;;;5084771;28;20260;-75
2022/05/09 08:51:42;;;;;;;0.30;0.30;;;23.70;1.00;;;;;;5091790;28;20635;-73
2022/05/09 08:54:12;;;;;;;0.30;0.30;;;22.80;1.00;;;;;;5092565;28;20178;-77
2022/05/09 08:56:38;;;;;;;0.50;0.50;;;23.20;1.00;;;;;;5093536;28;20329;-77
2022/05/09 08:59:11;;;;;;;0.30;0.30;;;23.40;1.00;;;;;;5092949;28;20177;-78
2022/05/09 09:01:43;;;;;;;0.30;0.30;;;23.70;1.00;;;;;;5094511;28;20209;-78
2022/05/09 09:04:29;;;;;;;0.30;0.30;;;23.90;1.00;;;;;;5095152;28;20635;-76
2022/05/09 09:07:22;;;;;;;0.30;0.30;;;23.30;1.00;;;;;;5095547;28;20174;-79
2022/05/09 09:10:07;;;;;;;0.30;0.30;;;22.80;1.00;;;;;;5094465;28;20549;-77
2022/05/09 09:12:39;;;;;;;0.30;0.30;;;23.20;1.00;;;;;;5093989;28;20685;-77
2022/05/09 09:15:26;;;;;;;0.50;0.50;;;23.30;1.00;;;;;;5074344;28;20185;-79
2022/05/09 09:18:03;;;;;;;0.20;0.20;;;23.70;1.00;;;;;;5053928;28;20172;-77
2022/05/09 09:20:41;;;;;;;0.40;0.40;;;24.50;1.00;;;;;;5053404;28;20189;-79
2022/05/09 09:23:20;;;;;;;0.30;0.30;;;24.90;1.00;;;;;;5053448;28;20269;-80
2022/05/09 09:25:55;;;;;;;0.40;0.40;;;24.80;1.00;;;;;;5060738;28;20261;-78
2022/05/09 09:28:47;;;;;;;0.30;0.30;;;24.50;1.00;;;;;;5060789;28;20256;-78
2022/05/09 09:31:17;;;;;;;0.30;0.30;;;24.50;1.00;;;;;;5078604;28;20194;-77
2022/05/09 09:34:30;;;;;;;0.40;0.40;;;24.40;1.00;;;;;;5078993;28;20667;-78
2022/05/09 09:37:13;;;;;;;0.33;0.33;;;24.50;1.00;;;;;;5060719;28;20194;-79
2022/05/09 09:39:39;;;;;;;0.30;0.30;;;24.80;1.00;;;;;;5066653;28;20170;-78
2022/05/09 09:42:06;;;;;;;0.40;0.40;;;25.10;1.00;;;;;;5059653;28;20199;-75
2022/05/09 09:44:34;;;;;;;0.40;0.40;;;25.50;1.00;;;;;;5060874;28;20250;-77
2022/05/09 09:47:02;;;;;;;0.30;0.30;;;25.30;1.00;;;;;;5058748;28;20195;-78
2022/05/09 09:49:28;;;;;;;0.30;0.30;;;25.20;1.00;;;;;;5076047;28;20174;-78
2022/05/09 09:51:54;;;;;;;0.37;0.37;;;25.10;1.00;;;;;;5077263;28;20251;-78
2022/05/09 09:54:22;;;;;;;0.43;0.43;;;24.90;1.00;;;;;;5077798;28;20239;-78
2022/05/09 09:56:48;;;;;;;0.33;0.33;;;25.10;1.00;;;;;;5066579;28;20213;-78
2022/05/09 09:59:13;;;;;;;0.30;0.30;;;24.40;1.00;;;;;;5056230;28;20957;-77
2022/05/09 10:01:39;;;;;;;0.40;0.40;;;23.80;1.00;;;;;;5070994;28;20631;-77
2022/05/09 10:04:09;;;;;;;0.40;0.40;;;24.30;1.00;;;;;;5073347;28;20178;-76
2022/05/09 10:06:55;;;;;;;0.40;0.40;;;25.00;1.00;;;;;;5074588;28;20185;-77
2022/05/09 10:09:21;;;;;;;0.30;0.30;;;25.60;1.00;;;;;;5055401;28;20179;-76
2022/05/09 10:11:47;;;;;;;0.30;0.30;;;25.00;1.00;;;;;;5074419;28;20206;-77
2022/05/09 10:14:34;;;;;;;0.30;0.30;;;24.60;1.00;;;;;;5075587;28;20626;-78
2022/05/09 10:17:35;;;;;;;0.30;0.30;;;24.60;1.00;;;;;;5073606;28;20588;-78
2022/05/09 10:20:28;;;;;;;0.30;0.30;;;25.00;1.00;;;;;;5002313;28;20176;-77
2022/05/09 10:26:00;;;;;;;0.20;0.20;;;24.30;1.00;;;;;;5073131;28;20177;-77
2022/05/09 10:28:30;;;;;;;0.30;0.30;;;24.20;1.00;;;;;;5072442;28;20178;-77
2022/05/09 10:31:04;;;;;;;0.40;0.40;;;24.20;1.00;;;;;;5071256;28;20202;-76
2022/05/09 10:33:43;;;;;;;0.37;0.37;;;24.50;1.00;;;;;;5075651;28;20184;-77
2022/05/09 10:36:21;;;;;;;0.37;0.37;;;24.90;1.00;;;;;;5076542;28;20262;-77
2022/05/09 10:39:06;;;;;;;0.40;0.40;;;25.40;1.00;;;;;;5076518;28;20679;-78
2022/05/09 10:41:40;;;;;;;0.30;0.30;;;25.60;1.00;;;;;;5076342;28;20210;-77
2022/05/09 10:44:34;;;;;;;0.30;0.30;;;26.00;1.00;;;;;;5076690;28;20632;-77
2022/05/09 10:47:21;;;;;;;0.37;0.37;;;26.50;1.00;;;;;;5077306;28;20647;-77
2022/05/09 10:49:52;;;;;;;0.50;0.50;;;27.10;1.00;;;;;;5055999;28;20193;-76
2022/05/09 10:52:20;;;;;;;0.40;0.40;;;27.50;1.00;;;;;;5077632;28;20209;-79
2022/05/09 10:54:53;;;;;;;0.30;0.30;;;27.80;1.00;;;;;;5076422;28;20603;-77
2022/05/09 10:57:29;;;;;;;0.30;0.30;;;28.10;1.00;;;;;;5078146;28;20210;-78
2022/05/09 11:00:06;;;;;;;0.33;0.33;;;28.50;1.00;;;;;;5073408;28;20174;-79
2022/05/09 11:02:41;;;;;;;0.40;0.40;;;28.30;1.00;;;;;;5072261;28;20222;-77
2022/05/09 11:05:07;;;;;;;0.40;0.40;;;27.70;1.00;;;;;;5076365;28;20243;-77
2022/05/09 11:07:44;;;;;;;0.40;0.40;;;27.00;1.00;;;;;;5076840;28;20541;-77
2022/05/09 11:10:19;;;;;;;0.30;0.30;;;26.90;1.00;;;;;;5073415;28;20177;-78
2022/05/09 11:13:14;;;;;;;0.40;0.40;;;27.00;1.00;;;;;;5077043;28;20923;-77
2022/05/09 11:16:02;;;;;;;0.30;0.30;;;27.10;1.00;;;;;;5074574;28;20249;-78
2022/05/09 11:18:35;;;;;;;0.30;0.30;;;26.50;1.00;;;;;;5077391;28;20175;-77
2022/05/09 11:21:29;;;;;;;0.40;0.40;;;25.80;1.00;;;;;;5081800;28;20567;-78
2022/05/09 11:23:54;;;;;;;0.40;0.40;;;25.40;1.00;;;;;;5077602;28;20182;-77
2022/05/09 11:26:38;;;;;;;0.30;0.30;;;25.40;1.00;;;;;;5078818;28;20273;-77
2022/05/09 11:29:42;;;;;;;0.40;0.40;;;25.60;1.00;;;;;;5076695;28;20658;-76
2022/05/09 11:32:32;;;;;;;0.50;0.50;;;26.20;1.00;;;;;;5054610;28;20694;-76
2022/05/09 11:35:27;;;;;;;0.30;0.30;;;26.40;1.00;;;;;;5074354;28;20178;-77
2022/05/09 11:38:26;;;;;;;0.30;0.30;;;26.70;1.00;;;;;;5056999;28;20199;-76
2022/05/09 11:41:44;;;;;;;0.40;0.40;;;26.20;1.00;;;;;;5078157;22;20237;-79
2022/05/09 11:44:18;;;;;;;0.50;0.50;;;25.70;1.00;;;;;;5002034;28;20188;-78
2022/05/09 11:47:17;;;;;;;0.30;0.30;;;26.40;1.00;;;;;;5070381;28;20187;-77
2022/05/09 11:49:54;;;;;;;0.40;0.40;;;26.10;1.00;;;;;;5084201;28;20206;-80
2022/05/09 11:52:39;;;;;;;0.40;0.40;;;25.70;1.00;;;;;;5082576;28;20190;-80
2022/05/09 11:55:13;;;;;;;0.30;0.30;;;25.80;1.00;;;;;;5082800;28;20259;-79
2022/05/09 11:57:41;;;;;;;0.30;0.30;;;25.80;1.00;;;;;;5080251;28;20183;-77
2022/05/09 12:00:35;;;;;;;0.40;0.40;;;25.90;1.00;;;;;;5079734;28;20604;-78
2022/05/09 12:03:05;;;;;;;0.40;0.40;;;25.80;1.00;;;;;;5079190;28;20214;-77
2022/05/09 12:05:31;;;;;;;0.30;0.30;;;26.30;1.00;;;;;;5062991;28;20261;-78
2022/05/09 12:08:08;;;;;;;0.30;0.30;;;26.70;1.00;;;;;;5080705;28;20204;-78
2022/05/09 12:10:38;;;;;;;0.30;0.30;;;26.80;1.00;;;;;;5081018;28;20535;-78
2022/05/09 12:13:16;;;;;;;0.30;0.30;;;26.00;1.00;;;;;;5080183;28;20270;-75
2022/05/09 12:15:54;;;;;;;0.40;0.40;;;26.30;1.00;;;;;;5079843;28;20188;-77
2022/05/09 12:18:32;;;;;;;0.33;0.33;;;26.60;1.00;;;;;;5080150;28;20201;-78
2022/05/09 12:21:10;;;;;;;0.30;0.30;;;26.30;1.00;;;;;;5079663;28;20210;-77
2022/05/09 12:23:35;;;;;;;0.30;0.30;;;25.90;1.00;;;;;;5080930;28;20181;-77
2022/05/09 12:26:04;;;;;;;0.30;0.30;;;26.40;1.00;;;;;;5079545;28;20175;-77
2022/05/09 12:28:31;;;;;;;0.33;0.33;;;26.60;1.00;;;;;;5081252;28;20178;-77
2022/05/09 12:31:01;;;;;;;0.30;0.30;;;26.10;1.00;;;;;;5080671;28;20309;-78
2022/05/09 12:33:41;;;;;;;0.50;0.50;;;25.80;1.00;;;;;;5070583;28;20175;-79
2022/05/09 12:36:26;;;;;;;0.30;0.30;;;25.90;1.00;;;;;;5067733;28;20642;-78
2022/05/09 12:38:59;;;;;;;0.20;0.20;;;26.30;1.00;;;;;;5042520;28;20758;-76
2022/05/09 12:41:52;;;;;;;0.30;0.30;;;26.10;1.00;;;;;;5062757;28;20218;-78
2022/05/09 12:44:35;;;;;;;0.40;0.40;;;25.90;1.00;;;;;;5063238;28;20182;-79
2022/05/09 12:47:04;;;;;;;0.30;0.30;;;25.70;1.00;;;;;;5074100;28;20175;-76
2022/05/09 12:49:45;;;;;;;0.40;0.40;;;25.80;1.00;;;;;;5078956;28;20178;-77
2022/05/09 12:52:17;;;;;;;0.30;0.30;;;25.70;1.00;;;;;;5076792;28;20197;-78
2022/05/09 12:55:52;;;;;;;0.30;0.30;;;25.70;1.00;;;;;;5077672;28;20175;-77
2022/05/09 12:57:35;;;;;;;0.40;0.40;;;25.60;1.00;;;;;;5075466;28;20174;-76
2022/05/09 13:00:16;;;;;;;0.20;0.20;;;25.90;1.00;;;;;;5074705;28;20174;-78
2022/05/09 13:02:42;;;;;;;0.30;0.30;;;25.40;1.00;;;;;;5081870;28;20221;-79
2022/05/09 13:05:09;;;;;;;0.33;0.33;;;25.00;1.00;;;;;;5080392;28;20174;-78
2022/05/09 13:07:53;;;;;;;0.30;0.30;;;24.90;1.00;;;;;;5081590;28;20178;-77
2022/05/09 13:10:18;;;;;;;0.40;0.40;;;24.80;1.00;;;;;;5067493;28;20170;-77
2022/05/09 13:12:44;;;;;;;0.30;0.30;;;25.10;1.00;;;;;;5076291;28;20194;-76
2022/05/09 13:15:18;;;;;;;0.23;0.23;;;25.20;1.00;;;;;;5077034;28;20171;-77
2022/05/09 13:17:45;;;;;;;0.30;0.30;;;25.60;1.00;;;;;;5076019;28;20175;-76
2022/05/09 13:20:14;;;;;;;0.30;0.30;;;26.10;1.00;;;;;;5089074;28;20174;-76
2022/05/09 13:23:06;;;;;;;0.40;0.40;;;26.30;1.00;;;;;;5084576;28;20218;-76
2022/05/09 13:25:50;;;;;;;0.40;0.40;;;26.50;1.00;;;;;;5080742;28;20190;-76